Date,TemperatureHighF,TemperatureAvgF,TemperatureLowF,DewpointHighF,DewpointAvgF,DewpointLowF,HumidityHigh,HumidityAvg,HumidityLow,PressureMaxIn,PressureMinIn,WindSpeedMaxMPH,WindSpeedAvgMPH,GustSpeedMaxMPH,PrecipitationSumIn
2013-1-1,20,12,8,10,2,-3,77,64,48,30.33,30.18,15,6,15,0.00
2013-1-2,30,21,8,18,10,-3,77,63,43,30.27,30.12,13,4,15,0.00
2013-1-3,27,23,14,21,17,8,85,77,69,30.30,30.12,17,8,20,0.00
2013-1-4,32,22,12,18,13,6,80,70,53,30.30,30.15,20,7,21,0.00
2013-1-5,36,28,18,34,24,14,100,85,66,30.30,29.97,18,6,24,0.00
2013-1-6,35,28,19,32,22,14,90,78,65,30.42,29.97,24,9,27,0.00
2013-1-7,40,28,18,26,20,12,83,70,50,30.39,30.12,25,8,31,0.00
2013-1-8,42,34,25,29,26,22,90,73,54,30.24,30.03,21,5,28,0.00
2013-1-9,43,36,28,30,25,21,80,65,46,30.56,30.00,24,8,29,0.00
2013-1-10,42,33,23,37,28,19,100,83,64,30.59,29.97,17,4,19,0.37
2013-1-11,51,44,37,48,43,37,100,97,86,29.97,29.74,24,6,29,0.21
2013-1-12,52,40,27,47,32,19,88,74,57,30.09,29.74,25,10,26,0.00
2013-1-13,27,21,14,24,13,3,90,71,58,30.30,29.97,20,10,24,0.00
2013-1-14,28,19,12,10,6,3,67,58,43,30.53,30.27,16,5,20,0.00
2013-1-15,32,22,14,16,11,7,81,63,42,30.50,30.18,13,3,15,0.00
2013-1-16,34,27,18,30,18,7,86,68,51,30.18,29.83,23,7,28,0.00
2013-1-17,32,23,18,17,8,3,61,53,43,30.48,30.12,23,8,26,0.00
2013-1-18,42,32,21,30,20,8,76,61,53,30.50,29.91,31,10,37,0.00
2013-1-19,45,38,21,33,28,6,78,66,39,29.97,29.74,52,11,53,0.00
2013-1-20,21,14,10,8,0,-4,63,55,46,30.36,29.97,44,13,46,0.00
2013-1-21,12,6,-1,-4,-9,-16,49,49,49,30.33,30.18,30,13,35,0.00
2013-1-22,9,2,-5,-6,-12,-19,49,49,49,30.42,30.33,25,9,25,0.00
2013-1-23,18,12,5,14,1,-10,86,61,49,30.42,30.12,23,6,26,0.00
2013-1-24,20,12,2,7,1,-4,75,63,46,30.68,30.42,13,4,20,0.00
2013-1-25,25,21,17,17,12,3,83,67,47,30.44,30.00,20,7,21,0.00
2013-1-26,30,23,11,14,10,4,73,58,42,30.44,30.09,13,6,17,1.91
2013-1-27,34,28,23,34,22,12,100,80,59,30.44,29.97,17,5,18,0.00
2013-1-28,43,37,33,42,35,31,100,93,72,30.06,29.85,18,5,18,0.12
2013-1-29,59,45,36,59,45,36,100,100,90,29.91,29.53,17,4,20,1.25
2013-1-30,37,30,17,37,28,11,100,91,73,29.68,29.35,33,10,33,0.20
2013-1-31,18,12,4,12,3,-6,77,65,57,30.21,29.68,34,15,34,0.00
2013-2-1,9,4,-3,-2,-7,-13,60,60,60,30.39,30.18,20,8,20,0.00
2013-2-2,22,11,3,4,-2,-12,60,55,45,30.21,30.06,13,4,13,0.00
2013-2-3,23,14,4,12,1,-10,82,57,48,30.09,30.00,29,6,29,0.00
2013-2-4,28,18,14,15,9,4,82,70,53,30.06,29.97,12,3,14,0.00
2013-2-5,29,20,0,22,12,1,89,70,62,30.18,29.83,15,5,17,0.00
2013-2-6,39,25,1,29,16,-5,85,69,45,30.30,30.15,13,3,13,0.00
2013-2-7,35,33,24,33,30,22,100,92,80,30.21,29.94,7,2,8,0.05
2013-2-8,26,22,16,22,18,12,91,85,75,30.48,30.06,9,1,9,0.00
2013-2-9,34,19,5,25,15,2,95,83,67,30.44,30.18,10,2,12,0.00
2013-2-10,44,33,16,44,32,13,100,96,66,30.18,29.53,22,6,27,0.12
2013-2-11,41,32,27,31,24,18,88,72,64,30.09,29.53,28,14,32,0.00
2013-2-12,30,25,22,20,17,14,83,71,55,30.18,29.97,17,7,20,0.00
2013-2-13,42,30,19,30,24,16,92,77,50,29.97,29.77,13,3,13,0.00
2013-2-14,36,34,27,33,28,20,92,79,63,30.06,29.68,33,9,35,0.00
2013-2-15,29,23,15,26,10,3,88,60,44,30.30,30.06,19,8,20,0.00
2013-2-16,15,12,11,4,1,0,62,61,58,30.27,30.18,24,7,24,0.00
2013-2-17,11,11,11,0,0,0,61,61,61,30.30,30.06,9,3,10,0.00
2013-2-18,48,35,11,43,27,0,100,72,55,30.09,29.50,23,8,26,0.42
2013-2-19,32,16,9,31,8,-1,96,70,59,30.21,29.59,31,17,33,0.00
2013-2-20,25,14,7,9,3,-3,71,61,48,30.44,30.18,22,8,25,0.00
2013-2-21,27,22,0,22,16,6,83,75,67,30.48,30.15,17,5,21,0.00
2013-2-22,35,29,25,28,25,21,96,86,75,30.15,29.85,14,5,17,0.00
2013-2-23,33,26,20,24,17,13,87,70,52,30.03,29.91,14,6,15,0.00
2013-2-24,21,21,21,15,15,15,77,77,77,30.24,30.00,9,3,9,0.00
2013-2-25,30,21,21,24,15,15,79,77,77,30.27,30.15,4,0,5,0.00
2013-2-26,36,33,30,33,28,23,100,84,61,30.15,29.68,25,9,29,0.04
2013-2-27,39,33,30,33,32,29,100,95,78,29.83,29.65,15,5,16,0.12
2013-2-28,37,32,25,32,26,16,97,78,61,30.21,29.83,17,7,18,0.08
2013-3-1,27,25,23,19,18,15,79,73,66,30.30,30.18,19,7,20,0.00
2013-3-2,34,22,11,16,10,2,71,61,45,30.33,30.24,15,5,16,0.00
2013-3-3,38,19,6,14,4,-4,81,55,34,30.27,30.12,11,3,11,0.00
2013-3-4,40,24,6,22,12,-6,72,60,47,30.24,30.12,13,3,14,0.00
2013-3-5,33,31,27,29,25,22,92,79,70,30.15,29.94,17,6,17,0.00
2013-3-6,35,30,26,26,24,22,87,78,64,30.39,30.12,18,8,20,0.00
2013-3-7,42,29,16,22,18,11,81,64,42,30.50,30.36,9,3,9,0.04
2013-3-8,47,27,9,29,18,4,86,71,48,30.56,30.39,10,3,10,0.00
2013-3-9,42,35,27,32,28,21,89,77,63,30.39,29.91,12,4,13,0.05
2013-3-10,44,39,34,44,39,32,100,99,89,29.91,29.71,11,3,13,0.74
2013-3-11,39,35,32,39,34,27,100,98,83,29.83,29.62,17,5,18,0.00
2013-3-12,34,30,25,29,24,16,95,78,50,30.09,29.83,23,9,23,0.00
2013-3-13,34,26,20,19,12,7,80,58,40,30.39,30.06,25,12,28,0.00
2013-3-14,40,28,19,27,17,8,87,62,43,30.42,30.15,10,3,14,0.00
2013-3-15,38,33,28,32,29,25,93,86,74,30.15,29.88,15,3,17,0.04
2013-3-16,38,30,27,28,23,16,93,75,47,30.21,29.88,15,6,17,0.00
2013-3-17,37,28,21,22,15,8,74,57,44,30.36,30.12,15,6,18,0.00
2013-3-18,38,30,20,32,24,10,94,78,60,30.12,29.68,27,7,27,0.09
2013-3-19,32,22,14,12,8,4,72,56,42,30.09,29.80,32,14,33,0.00
2013-3-20,22,18,12,8,4,-1,63,55,46,30.15,30.06,26,12,30,0.00
2013-3-21,33,21,15,14,7,3,61,54,43,30.12,30.06,20,8,23,0.00
2013-3-22,39,26,15,17,12,7,70,55,39,30.18,30.06,10,4,14,0.00
2013-3-23,42,30,21,24,19,13,80,64,41,30.21,30.12,9,3,12,0.00
2013-3-24,38,33,30,27,23,19,79,68,59,30.15,29.83,22,7,25,0.00
2013-3-25,36,32,29,27,24,20,84,71,56,30.18,29.83,20,7,23,0.00
2013-3-26,42,35,31,28,25,22,79,65,52,30.33,30.18,19,7,21,0.00
2013-3-27,42,36,29,25,21,18,70,56,41,30.42,30.30,15,5,17,0.00
2013-3-28,49,37,28,24,21,18,70,55,37,30.42,30.36,11,4,12,0.00
2013-3-29,53,38,27,28,22,17,80,56,35,30.42,30.30,11,2,13,0.00
2013-3-30,57,43,29,40,30,20,77,59,42,30.33,29.88,23,6,23,0.00
2013-3-31,52,42,34,43,35,22,100,77,46,30.00,29.77,32,11,34,0.00
2013-4-1,39,32,28,24,17,12,80,52,41,30.30,29.94,26,10,29,0.00
2013-4-2,42,32,24,18,15,12,67,50,37,30.39,30.24,23,8,24,0.00
2013-4-3,47,35,25,21,17,14,71,49,31,30.53,30.39,12,4,13,0.00
2013-4-4,58,42,29,34,23,12,68,47,35,30.39,30.03,18,6,22,0.00
2013-4-5,50,39,32,30,24,18,78,55,39,30.33,30.09,13,5,15,0.00
2013-4-6,65,48,34,50,33,21,87,58,36,30.27,29.65,24,8,33,0.04
2013-4-7,59,46,36,50,35,29,90,68,42,30.12,29.68,29,9,30,0.00
2013-4-8,59,44,35,47,39,29,100,85,63,30.09,29.65,26,6,27,0.41
2013-4-9,41,39,37,41,38,37,100,99,91,30.15,29.97,22,6,24,1.87
2013-4-10,39,37,35,38,37,35,100,99,95,30.18,29.97,24,8,26,0.75
2013-4-11,38,37,35,38,37,35,100,100,100,30.03,29.68,26,7,28,0.45
2013-4-12,42,38,36,39,35,27,100,89,68,29.94,29.65,16,7,17,0.05
2013-4-13,39,36,32,29,26,21,80,67,51,30.09,29.88,26,8,27,0.00
2013-4-14,52,40,32,46,34,26,95,81,60,30.15,29.74,19,5,23,0.08
2013-4-15,63,53,42,53,46,32,100,80,43,30.09,29.74,38,8,38,0.21
2013-4-16,61,45,36,41,34,29,96,68,36,30.42,30.06,19,5,21,0.00
2013-4-17,43,41,39,42,36,29,100,84,63,30.42,29.97,18,5,24,0.95
2013-4-18,59,47,40,59,46,32,100,97,73,29.97,29.47,27,6,33,1.66
2013-4-19,41,37,32,32,27,22,87,66,51,29.97,29.53,36,14,40,0.00
2013-4-20,51,36,28,27,20,15,77,54,31,30.50,29.97,26,9,28,0.00
2013-4-21,51,41,32,31,26,21,80,56,38,30.62,30.39,17,6,19,0.00
2013-4-22,67,53,40,39,33,28,70,47,33,30.39,30.12,14,5,16,0.00
2013-4-23,54,45,39,48,40,33,97,84,53,30.15,29.97,23,7,24,0.33
2013-4-24,56,44,36,33,27,23,80,55,30,30.18,30.03,18,6,21,0.00
2013-4-25,55,46,40,37,30,26,82,56,36,30.39,30.09,22,8,27,0.00
2013-4-26,69,54,39,45,36,26,76,52,36,30.42,30.27,28,9,32,0.00
2013-4-27,71,58,46,47,43,38,91,59,35,30.39,30.12,13,4,13,0.00
2013-4-28,74,58,51,51,45,39,90,63,40,30.12,29.88,10,2,10,0.00
2013-4-29,72,62,50,55,51,47,95,70,44,29.97,29.83,15,5,17,0.00
2013-4-30,87,73,63,59,54,48,82,55,29,29.97,29.83,32,11,37,0.00
2013-5-1,85,72,51,57,52,39,67,50,28,30.27,29.97,17,7,24,0.00
2013-5-2,62,49,41,46,40,33,96,71,47,30.36,30.24,18,6,25,1.45
2013-5-3,48,44,39,47,42,38,100,95,89,30.27,30.09,16,6,20,0.54
2013-5-4,76,58,46,50,46,42,94,68,35,30.18,30.06,13,4,15,0.00
2013-5-5,77,60,47,46,42,35,88,56,33,30.18,30.09,13,3,13,0.00
2013-5-6,78,62,48,44,39,33,76,47,23,30.18,30.06,11,3,13,0.00
2013-5-7,84,65,50,47,42,35,75,46,27,30.15,30.06,10,3,11,0.00
2013-5-8,82,64,49,53,44,38,85,52,25,30.15,30.00,11,2,11,0.00
2013-5-9,69,58,45,56,49,44,96,75,51,30.06,29.94,19,3,20,0.17
2013-5-10,49,45,43,45,43,41,100,91,81,30.09,29.91,17,5,23,0.70
2013-5-11,54,48,41,50,38,26,100,73,38,30.12,29.88,40,9,40,0.00
2013-5-12,56,45,38,33,28,24,68,52,35,30.24,30.12,24,9,27,0.00
2013-5-13,63,48,36,36,32,28,89,57,29,30.30,30.09,12,4,14,0.00
2013-5-14,86,67,49,58,46,32,78,49,29,30.09,29.68,18,6,19,0.00
2013-5-15,78,71,58,58,48,42,66,45,28,29.91,29.65,17,6,22,0.00
2013-5-16,80,65,54,51,43,31,74,47,31,30.06,29.88,13,2,13,0.00
2013-5-17,67,58,52,48,42,31,74,55,37,30.18,30.06,12,4,15,0.00
2013-5-18,80,65,52,60,52,43,79,63,47,30.18,30.03,12,3,12,0.00
2013-5-19,86,70,56,64,59,52,91,70,45,30.09,29.83,13,3,17,0.04
2013-5-20,88,76,66,67,59,52,92,60,31,29.85,29.74,22,6,26,0.04
2013-5-21,82,71,64,65,60,52,95,71,38,29.80,29.71,20,6,27,0.09
2013-5-22,68,62,55,65,59,54,96,89,76,29.85,29.71,11,2,11,0.37
2013-5-23,61,51,42,54,44,33,97,79,46,30.42,29.85,17,5,17,0.08
2013-5-24,64,50,38,41,34,31,80,57,39,30.56,30.42,10,3,11,0.00
2013-5-25,64,53,44,40,35,30,79,53,36,30.53,30.39,11,2,11,0.00
2013-5-26,67,55,43,45,39,30,77,57,35,30.42,30.24,13,3,18,0.00
2013-5-27,54,53,51,53,48,39,100,87,58,30.27,30.00,14,4,20,0.09
2013-5-28,72,61,52,68,60,51,100,97,78,30.03,29.83,12,2,13,0.54
2013-5-29,82,71,63,68,64,60,100,82,55,30.03,29.88,13,3,13,0.00
2013-5-30,84,75,64,69,65,61,94,72,53,30.00,29.83,20,6,28,0.20
2013-5-31,78,70,64,66,63,57,100,81,52,29.94,29.80,23,6,23,0.17
2013-6-1,79,70,65,68,63,59,95,78,55,29.83,29.71,17,5,20,0.04
2013-6-2,66,57,50,60,49,41,94,75,56,30.15,29.77,19,4,21,0.00
2013-6-3,68,55,47,50,45,39,96,72,35,30.21,30.12,6,2,9,0.00
2013-6-5,65,60,53,50,48,44,81,64,51,30.18,30.06,11,3,14,0.00
2013-6-6,62,57,54,52,50,45,85,76,65,30.09,30.00,8,2,9,0.00
2013-6-7,77,62,54,50,44,36,75,54,30,30.12,30.00,13,3,13,0.00
2013-6-8,73,61,50,50,46,41,85,61,34,30.15,30.00,6,1,7,0.00
2013-6-9,77,66,55,59,54,48,79,65,47,30.15,29.91,12,3,15,0.00
2013-6-10,80,68,62,66,62,58,94,81,58,29.97,29.85,6,1,7,0.00
2013-6-11,87,73,62,65,61,57,96,70,37,30.03,29.88,9,2,11,0.00
2013-6-12,77,70,63,66,64,59,100,82,65,30.00,29.74,18,2,22,0.62
2013-6-13,77,66,58,63,55,49,100,71,46,30.18,29.77,11,3,21,0.00
2013-6-14,78,64,55,56,50,45,82,62,41,30.27,30.09,9,2,10,0.00
2013-6-15,80,67,56,70,61,48,100,82,68,30.18,29.91,8,2,13,0.34
2013-6-16,86,74,66,70,60,50,100,66,32,30.00,29.91,12,4,15,0.50
2013-6-17,86,71,59,61,56,50,88,62,32,30.06,29.88,13,3,16,0.00
2013-6-18,74,63,56,55,49,38,82,61,37,30.18,30.00,13,4,13,0.00
2013-6-19,79,64,52,50,45,38,77,52,33,30.27,30.15,8,2,12,0.00
2013-6-20,85,70,55,59,52,40,73,54,39,30.27,30.12,10,2,10,0.00
2013-6-21,76,70,64,68,64,54,100,82,61,30.21,30.00,20,3,21,0.53
2013-6-22,77,71,67,71,68,66,100,92,78,30.21,30.03,13,3,13,1.45
2013-6-23,87,75,67,72,67,61,97,77,51,30.12,29.94,15,4,19,0.00
2013-6-24,82,74,69,70,67,64,93,80,60,30.15,29.94,11,3,12,0.00
2013-6-25,81,72,66,73,69,65,100,90,69,30.03,29.88,10,2,15,1.42
2013-6-26,82,72,68,70,68,65,100,88,62,29.94,29.83,9,2,13,0.33
2013-6-27,85,74,67,72,68,61,100,83,49,29.91,29.77,11,2,14,0.04
2013-6-28,79,71,66,66,62,56,95,76,50,29.80,29.71,20,6,24,0.00
2013-6-29,78,68,65,63,59,51,91,75,42,29.91,29.71,17,4,20,0.00
2013-6-30,80,69,61,57,49,40,68,51,30,30.12,29.88,17,4,22,0.00
2013-7-1,84,69,59,52,47,41,67,46,30,30.21,30.09,15,3,16,0.00
2013-7-2,74,64,59,56,50,44,80,63,38,30.21,30.15,10,2,11,0.04
2013-7-3,68,64,61,64,59,52,94,83,71,30.18,30.12,6,1,8,0.00
2013-7-4,83,70,60,65,61,52,100,75,39,30.21,30.12,7,1,8,0.00
2013-7-5,85,74,64,65,61,55,90,66,39,30.21,30.06,8,2,10,0.00
2013-7-6,86,74,64,68,63,57,92,71,40,30.18,30.00,7,2,8,0.00
2013-7-7,86,78,70,70,68,62,91,73,47,30.09,29.97,8,3,10,0.00
2013-7-8,86,77,71,75,71,67,94,82,67,30.09,29.97,13,3,15,0.54
2013-7-9,85,75,69,76,72,68,97,90,68,30.09,29.88,12,2,13,1.04
2013-7-10,80,75,66,75,63,52,95,69,40,30.12,29.88,14,4,18,0.00
2013-7-11,85,70,61,63,55,47,92,64,31,30.21,30.09,6,2,9,0.00
2013-7-12,87,69,58,60,56,51,94,66,35,30.30,30.15,8,1,8,0.00
2013-7-13,87,72,60,64,58,53,95,66,32,30.27,30.18,10,2,11,0.00
2013-7-14,91,76,66,70,65,61,93,72,41,30.33,30.24,8,2,10,0.00
2013-7-15,90,79,69,74,71,66,94,79,57,30.39,30.30,8,2,9,0.00
2013-7-16,94,82,74,76,73,70,94,75,46,30.39,30.30,8,2,10,0.00
2013-7-17,94,83,76,75,72,68,91,70,45,30.39,30.21,12,2,12,0.00
2013-7-18,94,84,76,75,71,66,91,67,42,30.27,29.97,11,3,15,0.00
2013-7-19,92,84,76,73,70,67,78,64,47,30.00,29.80,17,5,19,0.00
2013-7-20,83,74,67,69,61,56,82,66,44,30.09,29.85,10,2,13,0.00
2013-7-21,82,70,64,69,62,56,100,78,59,30.09,29.94,28,3,34,3.03
2013-7-22,87,74,64,72,66,57,100,80,45,30.00,29.77,15,3,17,0.00
2013-7-23,78,70,61,65,57,48,89,66,39,30.09,29.77,13,3,14,0.00
2013-7-24,77,64,57,56,53,49,92,68,44,30.18,30.06,7,2,9,0.00
2013-7-25,77,67,56,59,56,52,93,68,47,30.21,30.06,9,3,11,0.00
2013-7-26,74,67,64,69,62,57,100,85,67,30.09,29.94,12,4,15,0.21
2013-7-27,64,59,55,59,51,43,94,75,51,30.03,29.94,14,5,16,0.00
2013-7-28,70,60,53,53,50,46,94,72,46,30.09,29.94,13,5,18,0.00
2013-7-29,78,64,56,57,54,51,91,72,48,30.30,30.09,6,2,8,0.00
2013-7-30,74,65,57,64,60,55,96,85,58,30.30,30.18,6,2,8,0.12
2013-7-31,75,67,63,67,64,62,100,93,68,30.21,30.03,24,1,24,0.67
2013-8-1,80,68,60,64,57,49,100,73,38,30.12,30.00,13,3,14,0.00
2013-8-2,79,70,62,67,61,56,100,76,47,30.06,29.94,8,3,11,0.21
2013-8-3,82,68,58,58,54,48,90,65,34,30.21,30.03,10,2,11,0.00
2013-8-4,74,65,58,61,56,54,94,74,51,30.33,30.21,8,2,10,0.00
2013-8-5,72,65,58,62,59,56,93,82,64,30.24,29.94,9,2,10,0.00
2013-8-6,84,73,64,71,66,62,97,81,57,30.00,29.88,10,2,12,0.00
2013-8-7,85,75,66,72,67,59,96,78,48,30.09,29.83,10,3,11,0.00
2013-8-8,81,69,63,63,55,46,94,66,33,30.15,30.06,7,2,9,0.00
2013-8-9,81,69,59,65,59,54,87,71,50,30.15,30.06,10,2,15,0.00
2013-8-10,77,68,60,64,57,50,93,71,43,30.30,30.15,6,1,8,0.00
2013-8-11,74,66,58,65,61,56,94,84,66,30.30,30.12,6,1,6,0.03
2013-8-12,84,71,66,70,65,57,100,83,42,30.15,29.94,11,1,13,0.50
2013-8-13,70,62,55,59,48,43,84,62,42,30.27,30.06,12,3,13,0.00
2013-8-14,77,62,52,53,50,46,93,69,34,30.33,30.21,6,2,8,0.00
2013-8-15,80,66,57,57,52,47,82,64,38,30.27,30.18,8,2,8,0.00
2013-8-16,83,68,59,60,55,50,91,67,35,30.30,30.21,6,1,7,0.00
2013-8-17,83,67,55,66,56,53,97,71,39,30.36,30.24,6,1,6,0.00
2013-8-18,82,68,56,65,57,54,94,72,41,30.33,30.18,6,1,8,0.00
2013-8-19,82,70,59,64,60,56,93,72,45,30.24,26.31,8,1,10,0.00
2013-8-20,85,74,64,67,63,59,95,70,44,30.21,30.06,11,3,12,0.00
2013-8-21,87,78,70,69,65,62,84,67,46,30.18,29.97,14,4,15,0.21
2013-8-22,76,71,64,72,67,61,100,89,74,30.24,30.06,24,2,25,1.45
2013-8-23,81,68,59,66,58,54,97,73,41,30.33,30.21,9,1,9,0.00
2013-8-24,83,70,58,66,60,56,100,73,45,30.42,30.24,7,2,10,0.00
2013-8-25,88,77,67,69,63,55,81,63,41,30.33,30.15,12,4,15,0.00
2013-8-26,89,79,72,73,68,63,81,69,55,30.24,30.03,12,4,12,0.00
2013-8-27,92,83,75,73,70,67,86,67,45,30.06,29.85,11,3,15,0.00
2013-8-28,86,77,70,72,69,64,90,76,51,30.15,29.88,10,2,10,0.00
2013-8-29,87,75,66,72,67,64,97,78,52,30.24,30.03,7,1,8,0.00
2013-8-30,93,75,68,75,68,60,91,81,42,30.09,29.80,36,3,36,0.38
2013-8-31,80,70,66,69,65,62,93,84,62,30.00,29.88,8,2,8,0.00
2013-9-1,84,70,62,70,66,62,100,87,57,29.94,29.83,10,2,19,0.70
2013-9-2,74,66,59,64,58,52,96,79,51,30.09,29.88,10,2,10,0.00
2013-9-3,78,63,54,57,53,49,94,73,42,30.21,30.06,6,1,6,0.00
2013-9-4,80,67,56,64,58,54,93,76,50,30.24,30.12,8,2,9,0.00
2013-9-5,76,66,56,63,52,43,90,64,39,30.39,30.21,12,2,12,0.00
2013-9-6,84,68,53,65,58,50,94,73,51,30.36,30.06,8,2,13,0.00
2013-9-7,80,72,67,71,66,62,93,80,55,30.12,29.97,15,2,16,0.17
2013-9-8,74,69,66,67,64,61,91,86,71,30.18,30.06,13,3,17,0.00
2013-9-9,89,78,67,75,70,65,94,79,60,30.09,29.83,10,3,10,0.00
2013-9-10,93,84,77,69,62,56,65,49,31,30.03,29.91,16,5,19,0.00
2013-9-11,82,75,70,68,64,61,89,69,52,30.18,30.00,10,2,11,0.00
2013-9-12,76,68,59,65,59,49,94,76,45,30.21,30.03,17,3,18,0.00
2013-9-13,68,57,50,49,43,39,78,59,38,30.33,30.18,13,3,19,0.00
2013-9-14,72,58,46,51,45,42,94,64,37,30.30,30.12,9,2,10,0.00
2013-9-15,60,58,54,60,54,43,100,88,55,30.33,30.12,11,2,13,0.37
2013-9-16,69,56,47,58,48,40,100,76,44,30.53,30.30,13,3,17,0.00
2013-9-17,72,57,45,58,50,44,96,78,52,30.44,30.21,9,2,10,0.00
2013-9-18,78,67,58,65,59,52,93,76,60,30.21,30.00,13,3,14,0.09
2013-9-19,81,72,68,72,68,63,100,87,65,30.06,29.83,28,4,28,0.87
2013-9-20,72,67,58,68,61,51,100,82,59,29.94,29.83,13,5,13,0.00
2013-9-21,59,56,51,57,48,41,95,76,54,30.09,29.88,12,4,12,0.00
2013-9-22,68,54,46,47,44,41,90,70,45,30.21,30.06,7,2,7,0.00
2013-9-23,69,56,47,52,47,44,95,75,47,30.27,30.18,8,2,8,0.00
2013-9-24,71,58,49,57,50,46,100,77,47,30.21,30.06,10,2,11,0.00
2013-9-25,73,58,48,60,50,45,100,77,46,30.15,30.06,10,2,11,0.00
2013-9-26,78,59,48,62,49,43,100,74,35,30.24,30.06,10,1,10,0.00
2013-9-27,78,62,49,56,51,47,97,71,40,30.30,30.15,10,2,12,0.00
2013-9-28,81,67,56,66,56,52,100,73,39,30.18,29.94,17,5,23,0.04
2013-9-29,74,59,51,57,48,39,100,73,34,30.18,30.00,6,2,10,0.04
2013-9-30,78,59,47,53,47,44,96,69,35,30.12,29.94,10,2,13,0.00
2013-10-1,84,68,58,63,57,49,96,71,41,30.03,29.94,18,5,21,0.00
2013-10-2,79,63,52,58,49,41,96,66,31,30.21,30.03,8,1,9,0.00
2013-10-3,76,67,58,69,63,52,100,88,69,30.09,29.94,9,2,12,0.09
2013-10-4,69,66,63,67,64,62,100,96,92,30.09,29.97,9,2,12,0.12
2013-10-5,74,66,64,72,66,64,100,99,90,30.09,29.94,6,1,6,0.00
2013-10-6,65,55,47,65,46,37,100,75,46,29.88,29.77,11,4,11,0.08
2013-10-7,72,54,46,50,45,41,100,74,38,30.21,29.83,14,4,16,0.00
2013-10-8,79,59,45,54,47,43,97,70,33,30.30,30.18,15,2,15,0.00
2013-10-9,73,59,50,52,47,42,92,67,35,30.36,30.24,10,2,11,0.00
2013-10-10,74,58,46,58,49,44,100,75,38,30.30,30.15,9,1,20,0.00
2013-10-11,74,61,51,58,52,48,97,74,46,30.21,30.06,15,2,17,0.00
2013-10-12,70,62,52,63,51,40,90,70,42,30.30,30.03,13,4,13,0.08
2013-10-13,69,52,44,44,40,34,84,66,35,30.50,30.27,12,2,14,0.00
2013-10-14,63,50,40,49,41,36,93,73,47,30.53,30.24,10,2,13,0.00
2013-10-15,62,55,49,62,50,43,100,85,72,30.24,29.83,17,4,17,0.17
2013-10-16,55,51,48,51,47,42,100,88,75,30.00,29.88,10,4,14,0.00
2013-10-17,53,48,44,48,45,40,97,91,76,30.00,29.91,10,2,11,0.16
2013-10-18,49,44,40,44,39,36,95,81,67,30.03,29.94,13,4,15,0.00
2013-10-19,53,46,39,37,34,29,85,67,42,29.97,29.83,16,4,17,0.00
2013-10-20,52,49,38,46,41,34,94,74,54,30.00,29.83,6,3,8,0.00
2013-10-21,50,42,34,43,30,20,82,62,47,30.06,29.83,21,7,22,0.00
2013-10-22,46,36,29,28,25,21,77,64,49,30.09,30.00,10,3,10,0.00
2013-10-23,44,37,30,29,25,21,84,65,41,30.12,30.00,17,5,17,0.00
2013-10-24,43,37,33,28,25,21,78,62,49,30.42,30.09,19,7,20,0.00
2013-10-25,51,40,29,28,24,21,76,54,38,30.48,30.03,22,6,26,0.00
2013-10-26,51,47,40,33,27,23,57,46,39,30.18,29.88,26,9,28,0.00
2013-10-27,58,43,32,31,26,23,75,53,36,30.18,30.00,13,3,17,0.00
2013-10-28,46,42,38,36,31,25,75,64,54,30.53,30.15,19,5,19,0.00
2013-10-29,56,45,36,43,36,27,90,73,55,30.50,30.27,10,2,12,0.00
2013-10-30,58,50,43,57,48,40,100,92,85,30.27,29.85,23,3,23,0.05
2013-10-31,62,57,45,62,57,41,100,98,83,29.85,29.35,25,5,25,0.49
2013-11-1,47,45,42,44,41,37,96,86,79,29.85,29.41,17,6,20,0.04
2013-11-2,47,42,39,42,39,34,100,87,64,30.27,29.85,14,5,14,0.00
2013-11-3,55,43,33,43,36,32,100,79,47,30.39,30.27,11,3,14,0.00
2013-11-4,57,50,44,42,38,34,80,64,46,30.36,30.18,17,5,19,0.00
2013-11-5,56,52,49,51,46,42,94,81,69,30.39,30.03,17,3,17,0.00
2013-11-6,56,46,34,56,42,24,100,87,61,30.27,29.83,29,10,30,0.25
2013-11-7,44,36,30,31,27,24,79,70,54,30.33,30.24,12,4,14,0.00
2013-11-8,48,38,28,31,28,26,90,69,48,30.42,29.97,22,4,28,0.00
2013-11-9,55,48,42,38,33,24,69,55,47,30.15,29.88,34,12,39,0.00
2013-11-10,50,43,37,28,26,23,65,52,39,30.42,30.15,26,8,26,0.00
2013-11-11,45,35,25,34,24,13,92,66,52,30.62,30.15,16,3,17,0.09
2013-11-12,33,26,21,17,14,11,79,62,45,30.80,30.59,17,2,18,0.00
2013-11-13,42,31,20,18,14,11,71,51,38,30.65,30.15,26,8,30,0.00
2013-11-14,48,40,33,25,21,15,54,47,41,30.15,29.97,18,7,21,0.00
2013-11-15,56,44,37,33,27,22,78,52,38,30.06,29.97,14,5,14,0.00
2013-11-16,59,50,38,56,47,31,100,91,77,30.03,29.65,28,8,30,0.00
2013-11-17,64,53,40,63,50,34,100,89,70,29.77,29.20,46,11,49,1.70
2013-11-18,40,36,28,34,25,20,79,66,53,30.33,29.77,35,13,38,0.00
2013-11-19,44,32,24,31,24,19,90,71,49,30.48,30.33,10,3,10,0.00
2013-11-20,45,38,33,35,28,22,89,69,43,30.39,30.18,17,5,18,0.04
2013-11-21,46,42,38,41,38,35,95,87,79,30.33,30.21,7,2,8,0.00
2013-11-22,41,34,26,37,26,14,90,72,53,30.59,30.33,20,7,22,0.00
2013-11-23,26,21,17,16,7,3,67,53,45,30.77,30.48,29,11,30,0.00
2013-11-24,32,21,16,11,4,2,56,47,38,30.77,30.36,24,7,27,0.00
2013-11-25,31,27,22,24,17,4,81,66,43,30.36,30.12,23,8,26,0.00
2013-11-26,32,27,15,26,16,2,78,65,48,30.27,30.09,26,7,29,0.00
2013-11-27,27,19,11,11,6,-1,71,56,51,30.33,30.24,22,8,22,0.00
2013-11-28,30,24,17,14,11,9,72,58,48,30.59,30.24,14,4,17,0.00
2013-11-29,36,24,14,21,13,8,78,66,44,30.71,30.44,6,2,9,0.00
2013-11-30,48,36,29,29,23,17,82,61,46,30.44,30.12,17,5,17,0.00
2013-12-1,46,34,28,29,25,22,85,72,48,30.21,30.06,9,2,9,0.00
2013-12-2,42,33,24,34,26,20,89,77,56,30.09,29.85,12,3,14,0.04
2013-12-3,40,38,34,40,38,31,100,99,89,29.88,29.77,11,3,13,0.17
2013-12-4,52,44,37,52,43,33,100,97,78,29.88,29.59,23,5,29,0.03
2013-12-5,37,26,19,32,14,7,86,63,50,30.33,29.71,24,12,27,0.00
2013-12-6,19,16,10,8,4,-2,71,59,53,30.65,30.33,20,10,22,0.00
2013-12-7,18,10,4,2,-4,-8,57,53,46,30.74,30.59,17,6,18,0.00
2013-12-8,26,20,9,22,10,-6,89,69,50,30.68,30.03,14,3,17,0.00
2013-12-9,24,14,-2,21,3,-17,91,63,46,30.27,29.97,19,8,26,0.00
2013-12-10,22,8,-6,7,-7,-21,64,49,47,30.33,30.00,27,8,27,0.00
2013-12-11,15,8,-4,9,-3,-14,79,59,50,30.59,30.30,22,7,23,0.00
2013-12-12,20,9,-4,5,-3,-14,64,58,46,30.59,30.24,18,6,20,0.00
2013-12-13,36,23,14,22,14,5,80,68,53,30.27,30.18,13,4,15,0.00
2013-12-14,31,26,20,24,21,16,85,80,72,30.21,30.00,12,5,15,0.00
2013-12-15,21,13,6,17,1,-10,84,59,46,30.21,29.97,25,10,30,0.00
2013-12-16,21,10,-2,9,-2,-17,78,57,45,30.24,30.06,15,4,15,0.00
2013-12-17,35,25,14,21,16,9,89,70,52,30.15,29.94,21,8,23,0.00
2013-12-18,37,26,11,24,12,1,67,56,38,30.21,29.83,23,7,30,0.00
2013-12-19,36,31,23,31,24,17,93,77,63,30.03,29.85,14,4,17,0.00
2013-12-20,33,30,26,31,28,25,96,92,88,29.94,29.83,9,0,14,0.00
2013-12-21,33,29,25,33,29,25,100,99,96,29.97,29.74,0,0,0,0.00
2013-12-22,32,27,20,32,24,18,100,90,77,30.21,29.74,0,0,0,0.00
2013-12-23,20,20,20,18,18,18,89,89,89,30.48,30.18,0,0,0,0.00
2013-12-24,20,12,-4,18,3,-14,89,68,52,30.59,30.39,0,0,0,0.00
2013-12-25,24,21,11,20,15,-3,87,79,54,30.42,30.12,0,0,0,0.00
2013-12-26,27,21,10,22,15,4,87,76,64,30.33,30.12,0,0,0,0.00
2013-12-27,40,29,12,28,22,9,91,76,56,30.36,30.09,19,4,23,0.09
2013-12-28,47,38,27,33,28,21,82,67,50,30.18,29.85,20,6,23,0.17
2013-12-29,40,23,2,29,13,-11,82,66,55,30.30,29.83,23,8,25,0.00
2013-12-30,7,0,-8,-6,-12,-20,55,55,55,30.39,30.24,13,5,15,0.00
2013-12-31,9,4,-3,-4,-8,-16,55,55,55,30.39,30.24,10,5,11,0.00
2014-1-1,21,11,4,12,1,-8,72,64,55,30.42,30.30,10,4,12,0.00
2014-1-2,24,9,-6,8,-3,-21,72,59,46,30.48,30.27,13,5,15,0.00